Latest Weather Observations for Larapuna (Eddystone Point)

IDT60801

Issued at 8:21 am EDT Wednesday 23 October 2019 (issued every 10 minutes, with the page automatically refreshed every 10 minutes)

About weather observations | Map of weather stations | Latest weather observations for TAS | Other Formats
Station Details ID: 092045 Name: LARAPUNA (EDDYSTONE POINT) Lat: -40.99 Lon: 148.35 Height: 19.7 m
Data from the previous 72 hours. | See also: Recent months at Larapuna (Eddystone Point)
Date/Time
EDT
Temp
°C
App
Temp
°C
Dew
Point
°C
Rel
Hum
%
Delta-T
°C
Wind Press
QNH
hPa
Press
MSL
hPa
Rain since
9am
mm
Dir  Spd
km/h
Gust
km/h
Spd
kts
Gust
kts
23/08:00am 11.5 6.3 8.9 84 1.3 WNW 26 41 14 22 1019.2 1019.2 0.0
23/07:30am 10.9 5.4 9.0 88 0.9 NW 28 37 15 20 1019.0 1019.0 0.0
23/07:00am 10.1 5.1 8.2 88 0.9 NW 24 32 13 17 1019.0 1019.0 0.0
23/06:30am 10.0 6.0 8.1 88 0.9 NW 19 26 10 14 1019.2 1019.2 0.0
23/06:00am 9.7 5.3 7.6 87 1.0 WNW 20 28 11 15 1019.3 1019.3 0.0
23/05:30am 9.9 4.8 7.7 86 1.1 WNW 24 33 13 18 1019.1 1019.1 0.0
23/05:00am 10.0 6.3 7.9 87 1.0 WNW 17 22 9 12 1019.0 1019.0 0.0
23/04:30am 10.2 5.2 8.0 86 1.1 WNW 24 35 13 19 1019.1 1019.1 0.0
23/04:00am 10.3 5.7 8.1 86 1.1 WNW 22 30 12 16 1019.3 1019.3 0.0
23/03:30am 10.4 5.4 8.0 85 1.2 NW 24 33 13 18 1019.5 1019.5 0.0
23/03:00am 10.4 5.0 7.8 84 1.2 NW 26 35 14 19 1019.7 1019.7 0.0
23/02:30am 10.5 4.6 7.7 83 1.3 NW 28 39 15 21 1019.9 1019.9 0.0
23/02:00am 10.4 5.0 7.8 84 1.2 NW 26 37 14 20 1020.5 1020.5 0.0
23/01:30am 10.5 4.7 7.9 84 1.3 NW 28 37 15 20 1020.7 1020.7 0.0
23/01:00am 10.5 4.8 8.3 86 1.1 NW 28 35 15 19 1021.1 1021.1 0.0
23/12:30am 10.2 3.7 8.0 86 1.1 NW 32 41 17 22 1021.2 1021.2 0.0
23/12:00am 10.0 3.4 7.9 87 1.0 NW 32 37 17 20 1021.6 1021.6 0.0
 
Date/Time
EDT
Temp
°C
App
Temp
°C
Dew
Point
°C
Rel
Hum
%
Delta-T
°C
Wind Press
QNH
hPa
Press
MSL
hPa
Rain since
9am
mm
Dir  Spd
km/h
Gust
km/h
Spd
kts
Gust
kts
22/11:30pm 10.1 3.9 8.0 87 1.0 NW 30 39 16 21 1021.6 1021.6 0.0
22/11:00pm 10.3 4.6 8.2 87 1.0 NW 28 37 15 20 1021.8 1021.8 0.0
22/10:30pm 10.3 4.9 8.2 87 1.0 NNW 26 33 14 18 1022.0 1022.0 0.0
22/10:00pm 10.1 5.4 7.9 86 1.1 NW 22 28 12 15 1022.6 1022.6 0.0
22/09:30pm 10.3 6.1 8.1 86 1.1 NW 20 26 11 14 1022.7 1022.7 0.0
22/09:00pm 10.6 6.3 8.0 84 1.3 NW 20 28 11 15 1023.1 1023.1 0.0
22/08:30pm 11.0 6.7 7.9 81 1.5 NW 20 26 11 14 1022.7 1022.7 0.0
22/08:00pm 11.7 6.7 8.2 79 1.7 NW 24 30 13 16 1022.3 1022.3 0.0
22/07:30pm 12.4 7.5 8.5 77 1.9 NW 24 32 13 17 1022.3 1022.3 0.0
22/07:00pm 12.7 7.6 9.3 80 1.7 NNW 26 33 14 18 1022.4 1022.4 0.0
22/06:30pm 13.3 8.2 9.2 76 2.1 NNW 26 32 14 17 1022.4 1022.4 0.0
22/06:00pm 13.8 8.3 9.0 73 2.4 NNW 28 33 15 18 1022.5 1022.5 0.0
22/05:30pm 14.2 9.4 8.8 70 2.7 NNW 24 30 13 16 1022.7 1022.7 0.0
22/05:00pm 14.7 10.3 9.1 69 2.8 NNW 22 30 12 16 1022.8 1022.8 0.0
22/04:30pm 14.6 9.9 9.4 71 2.7 NNW 24 30 13 16 1022.7 1022.7 0.0
22/04:00pm 14.9 9.9 9.7 71 2.7 NNW 26 30 14 16 1023.1 1023.1 0.0
22/03:30pm 16.1 11.0 9.3 64 3.5 N 26 32 14 17 1023.3 1023.3 0.0
22/03:00pm 15.6 11.2 9.1 65 3.3 N 22 28 12 15 1023.8 1023.8 0.0
22/02:30pm 15.1 11.2 8.6 65 3.3 NNE 19 22 10 12 1024.2 1024.2 0.0
22/02:00pm 15.9 11.5 8.9 63 3.6 NNE 22 24 12 13 1024.4 1024.4 0.0
22/01:30pm 17.3 14.0 9.7 61 4.0 NE 17 20 9 11 1024.5 1024.5 0.0
22/01:00pm 17.0 14.6 9.9 63 3.7 ENE 13 15 7 8 1024.9 1024.9 0.0
22/12:30pm 16.9 14.6 9.1 60 4.0 E 11 15 6 8 1025.0 1025.0 0.0
22/12:00pm 16.4 13.2 8.6 60 4.0 ESE 15 19 8 10 1025.2 1025.2 0.0
22/11:30am 17.7 14.4 9.6 59 4.3 SSE 17 20 9 11 1025.7 1025.7 0.0
22/11:00am 16.2 12.7 8.9 62 3.7 SE 17 20 9 11 1025.7 1025.7 0.0
22/10:30am 15.6 11.9 9.3 66 3.2 SSE 19 22 10 12 1025.6 1025.6 0.0
22/10:00am 15.8 13.2 9.2 65 3.4 ESE 13 15 7 8 1025.6 1025.6 0.0
22/09:30am 15.0 12.0 9.1 68 3.0 ESE 15 19 8 10 1025.4 1025.4 0.0
22/09:00am 14.9 12.2 8.8 67 3.1 ESE 13 17 7 9 1025.2 1025.2 0.0
22/08:30am 14.5 12.3 9.3 71 2.7 ESE 11 15 6 8 1025.0 1025.0 0.0
22/08:00am 13.6 11.0 9.3 75 2.2 SE 13 15 7 8 1024.6 1024.6 0.0
22/07:30am 13.0 10.2 8.5 74 2.2 ESE 13 19 7 10 1024.3 1024.3 0.0
22/07:00am 12.8 10.1 8.9 77 1.9 ESE 13 15 7 8 1023.9 1023.9 0.0
22/06:30am 12.5 9.8 8.8 78 1.9 SE 13 19 7 10 1023.7 1023.7 0.0
22/06:00am 12.4 9.6 8.7 78 1.8 SE 13 17 7 9 1023.5 1023.5 0.0
22/05:30am 12.5 9.8 9.1 80 1.7 SSE 13 17 7 9 1023.1 1023.1 0.0
22/05:00am 12.5 9.1 9.0 79 1.7 SSE 17 19 9 10 1022.7 1022.7 0.0
22/04:30am 12.5 9.4 9.0 79 1.8 SSE 15 20 8 11 1022.6 1022.6 0.0
22/04:00am 12.6 9.0 9.8 83 1.4 SSE 19 24 10 13 1022.7 1022.7 0.0
22/03:30am 12.3 8.4 9.3 82 1.5 SSE 20 22 11 12 1022.7 1022.7 0.0
22/03:00am 12.3 8.4 9.3 82 1.5 SSE 20 26 11 14 1022.6 1022.6 0.0
22/02:30am 12.6 8.9 10.0 84 1.3 SSE 20 24 11 13 1022.4 1022.4 0.0
22/02:00am 12.6 8.9 10.3 86 1.2 SSE 20 24 11 13 1022.6 1022.6 0.0
22/01:30am 12.5 8.5 10.4 87 1.1 S 22 26 12 14 1022.6 1022.6 0.0
22/01:00am 12.6 8.7 10.7 88 1.0 S 22 26 12 14 1022.7 1022.7 0.0
22/12:30am 12.5 8.2 10.7 89 0.9 S 24 28 13 15 1022.7 1022.7 0.0
22/12:00am 12.3 8.6 10.0 86 1.2 S 20 24 11 13 1022.6 1022.6 0.0
 
Date/Time
EDT
Temp
°C
App
Temp
°C
Dew
Point
°C
Rel
Hum
%
Delta-T
°C
Wind Press
QNH
hPa
Press
MSL
hPa
Rain since
9am
mm
Dir  Spd
km/h
Gust
km/h
Spd
kts
Gust
kts
21/11:30pm 13.2 8.9 10.6 84 1.4 S 24 28 13 15 1022.7 1022.7 0.0
21/11:00pm 13.1 8.8 10.6 85 1.3 S 24 30 13 16 1022.8 1022.8 0.0
21/10:30pm 13.0 8.7 10.7 86 1.2 S 24 28 13 15 1022.7 1022.7 0.0
21/10:00pm 12.9 8.3 11.0 88 1.0 SSW 26 32 14 17 1022.8 1022.8 0.0
21/09:30pm 12.9 9.0 10.8 87 1.1 SSW 22 28 12 15 1022.6 1022.6 0.0
21/09:00pm 12.1 9.9 9.5 84 1.3 WSW 11 15 6 8 1022.6 1022.6 0.0
21/08:30pm 12.5 10.3 9.3 81 1.6 WSW 11 15 6 8 1022.1 1022.1 0.0
21/08:00pm 13.3 11.2 9.7 79 1.8 W 11 19 6 10 1021.6 1021.6 0.0
21/07:30pm 14.2 13.1 10.0 76 2.2 WSW 6 15 3 8 1021.2 1021.2 0.0
21/07:00pm 15.5 13.3 10.7 73 2.5 SW 13 26 7 14 1021.0 1021.0 0.0
21/06:30pm 16.5 12.0 9.9 65 3.5 WNW 24 35 13 19 1020.6 1020.6 0.0
21/06:00pm 17.0 12.1 10.1 64 3.6 NW 26 37 14 20 1020.3 1020.3 0.0
21/05:30pm 17.5 12.4 10.6 64 3.7 WNW 28 41 15 22 1020.4 1020.4 0.0
21/05:00pm 17.9 13.1 10.3 61 4.0 WNW 26 37 14 20 1020.3 1020.3 0.0
21/04:30pm 18.6 12.9 9.9 57 4.6 NW 30 39 16 21 1020.4 1020.4 0.0
21/04:00pm 18.9 12.7 10.2 57 4.6 WNW 33 43 18 23 1020.6 1020.6 0.0
21/03:30pm 19.9 15.1 10.3 54 5.2 NW 26 37 14 20 1020.6 1020.6 0.0
21/03:00pm 19.8 15.1 10.5 55 5.0 NW 26 33 14 18 1021.1 1021.1 0.0
21/02:30pm 20.4 16.9 10.8 54 5.2 WNW 20 33 11 18 1021.2 1021.2 0.0
21/02:00pm 17.9 16.8 11.9 68 3.3 S 9 13 5 7 1021.3 1021.3 0.0
21/01:30pm 18.9 17.4 10.7 59 4.4 SE 9 15 5 8 1021.4 1021.4 0.0
21/01:00pm 18.1 16.3 10.7 62 4.0 SE 11 15 6 8 1021.7 1021.7 0.0
21/12:30pm 18.0 15.6 10.1 60 4.2 SE 13 17 7 9 1022.0 1022.0 0.0
21/12:00pm 18.1 15.5 9.5 57 4.5 SE 13 17 7 9 1022.2 1022.2 0.0
21/11:30am 18.9 16.6 10.5 58 4.5 SSE 13 17 7 9 1022.5 1022.5 0.0
21/11:00am 19.4 16.0 9.3 52 5.3 WNW 17 22 9 12 1022.5 1022.5 0.0
21/10:30am 17.9 14.5 9.0 56 4.6 NW 17 22 9 12 1022.6 1022.6 0.0
21/10:00am 16.9 13.2 8.1 56 4.4 WNW 17 22 9 12 1022.6 1022.6 0.0
21/09:30am 15.9 12.5 7.7 58 4.1 WNW 15 22 8 12 1022.6 1022.6 0.0
21/09:00am 14.5 10.6 7.3 62 3.5 WNW 17 24 9 13 1022.6 1022.6 0.0
21/08:30am 13.2 10.2 7.6 69 2.7 WNW 13 22 7 12 1022.4 1022.4 0.0
21/08:00am 11.9 8.4 7.2 73 2.3 WNW 15 20 8 11 1022.1 1022.1 0.0
21/07:30am 10.8 7.2 6.7 76 1.9 NW 15 24 8 13 1022.0 1022.0 0.0
21/07:00am 9.8 5.8 6.7 81 1.4 NW 17 22 9 12 1021.7 1021.7 0.0
21/06:30am 9.2 5.9 6.6 84 1.2 NW 13 22 7 12 1021.3 1021.3 0.0
21/06:00am 9.0 6.5 6.4 84 1.2 WNW 9 15 5 8 1021.2 1021.2 0.0
21/05:30am 9.4 4.0 6.5 82 1.3 WNW 24 35 13 19 1020.5 1020.5 0.0
21/05:00am 9.7 4.0 6.8 82 1.4 WNW 26 37 14 20 1020.4 1020.4 0.0
21/04:49am 9.7 3.6 6.6 81 1.4 W 28 46 15 25 1020.2 1020.2 0.0
21/04:30am 9.8 3.4 6.9 82 1.4 WNW 30 43 16 23 1020.1 1020.1 0.0
21/04:00am 10.1 3.1 7.0 81 1.5 W 33 44 18 24 1019.9 1019.9 0.0
21/03:30am 10.1 3.4 7.2 82 1.4 W 32 46 17 25 1020.0 1020.0 0.0
21/03:08am 10.2 3.3 7.1 81 1.5 W 33 52 18 28 1020.1 1020.1 0.0
21/03:00am 10.2 3.4 7.1 81 1.5 W 32 44 17 24 1020.3 1020.3 0.0
21/02:30am 10.1 3.7 6.8 80 1.6 W 30 43 16 23 1020.5 1020.5 0.0
21/02:00am 10.2 3.7 6.7 79 1.6 W 30 43 16 23 1020.6 1020.6 0.0
21/01:30am 10.5 4.4 6.8 78 1.7 WNW 28 35 15 19 1020.6 1020.6 0.0
21/01:00am 10.8 4.8 6.9 77 1.8 W 28 37 15 20 1020.5 1020.5 0.0
21/12:30am 11.1 5.8 7.0 76 2.0 W 24 35 13 19 1020.4 1020.4 0.0
21/12:00am 11.6 6.0 7.3 75 2.1 W 26 35 14 19 1020.3 1020.3 0.0
 
Date/Time
EDT
Temp
°C
App
Temp
°C
Dew
Point
°C
Rel
Hum
%
Delta-T
°C
Wind Press
QNH
hPa
Press
MSL
hPa
Rain since
9am
mm
Dir  Spd
km/h
Gust
km/h
Spd
kts
Gust
kts
20/11:30pm 11.6 5.4 7.9 78 1.8 WNW 30 39 16 21 1020.1 1020.1 0.0
20/11:00pm 11.7 6.3 8.2 79 1.7 WNW 26 35 14 19 1020.2 1020.2 0.0
20/10:30pm 11.7 6.0 8.2 79 1.7 WNW 28 33 15 18 1020.1 1020.1 0.0
20/10:00pm 12.0 6.0 8.7 80 1.6 WNW 30 39 16 21 1019.9 1019.9 0.0
20/09:30pm 12.1 6.4 8.4 78 1.8 WNW 28 39 15 21 1019.9 1019.9 0.0
20/09:00pm 12.1 6.1 8.8 80 1.6 WNW 30 39 16 21 1019.7 1019.7 0.0
20/08:30pm 12.4 6.8 8.9 79 1.8 WNW 28 39 15 21 1019.4 1019.4 0.0
20/08:00pm 12.6 6.3 8.9 78 1.9 WNW 32 44 17 24 1018.9 1018.9 0.0
20/07:30pm 12.8 5.9 8.9 77 2.0 WNW 35 54 19 29 1018.4 1018.4 0.0
20/07:00pm 13.2 5.6 8.9 75 2.2 WNW 39 50 21 27 1018.0 1018.0 0.0
20/06:42pm 13.4 6.1 8.9 74 2.3 WNW 37 56 20 30 1017.7 1017.7 0.0
20/06:30pm 13.6 5.6 8.9 73 2.4 WNW 41 54 22 29 1017.6 1017.6 0.0
20/06:18pm 13.7 6.1 9.0 73 2.4 WNW 39 57 21 31 1017.5 1017.5 0.0
20/06:00pm 14.0 6.0 9.0 72 2.5 WNW 41 57 22 31 1017.4 1017.4 0.0
20/05:37pm 14.2 6.5 8.8 70 2.7 WNW 39 57 21 31 1017.1 1017.1 0.0
20/05:30pm 14.4 6.0 8.8 69 2.8 WNW 43 57 23 31 1017.0 1017.0 0.0
20/05:00pm 15.1 7.0 8.8 66 3.2 WNW 41 59 22 32 1016.6 1016.6 0.0
20/04:30pm 15.2 6.1 8.4 64 3.4 WNW 46 65 25 35 1016.2 1016.2 0.0
20/04:00pm 15.7 7.1 8.2 61 3.8 WNW 43 63 23 34 1015.9 1015.9 0.0
20/03:38pm 15.9 8.1 8.4 61 3.8 WNW 39 57 21 31 1015.8 1015.8 0.0
20/03:30pm 16.2 8.6 8.9 62 3.7 WNW 39 54 21 29 1015.8 1015.8 0.0
20/03:00pm 16.2 8.7 9.4 64 3.5 WNW 39 61 21 33 1015.8 1015.8 0.0
20/02:35pm 16.1 8.1 9.1 63 3.6 WNW 41 59 22 32 1016.0 1016.0 0.0
20/02:30pm 15.5 7.8 8.5 63 3.6 WNW 39 56 21 30 1016.0 1016.0 0.0
20/02:00pm 15.6 7.0 8.1 61 3.8 WNW 43 65 23 35 1015.6 1015.6 0.0
20/01:30pm 15.0 6.2 8.0 63 3.5 WNW 44 63 24 34 1015.4 1015.4 0.0
20/01:01pm 14.3 6.0 7.8 65 3.2 WNW 41 59 22 32 1015.5 1015.5 0.0
20/01:00pm 14.2 5.5 7.5 64 3.3 WNW 43 59 23 32 1015.6 1015.6 0.0
20/12:46pm 14.6 6.3 7.9 64 3.3 WNW 41 59 22 32 1015.4 1015.4 0.0
20/12:30pm 13.2 4.4 7.4 68 2.8 WNW 43 59 23 32 1015.3 1015.3 0.0
20/12:00pm 12.9 6.0 7.4 69 2.7 NW 33 52 18 28 1015.5 1015.5 0.0
20/11:32am 12.4 5.2 7.5 72 2.4 NW 35 54 19 29 1015.4 1015.4 0.0
20/11:30am 12.4 4.8 7.5 72 2.4 NW 37 54 20 29 1015.3 1015.3 0.0
20/11:26am 12.2 4.9 7.3 72 2.4 NW 35 54 19 29 1015.2 1015.2 0.0
20/11:00am 12.0 3.9 7.1 72 2.4 WNW 39 50 21 27 1015.3 1015.3 0.0
20/10:30am 11.7 3.6 6.8 72 2.3 WNW 39 59 21 32 1014.9 1014.9 0.0
20/10:22am 11.7 3.2 6.8 72 2.3 WNW 41 59 22 32 1014.9 1014.9 0.0
20/10:00am 11.6 2.6 6.5 71 2.4 W 43 59 23 32 1014.4 1014.4 0.0
20/09:30am 11.3 4.7 6.2 71 2.4 W 30 52 16 28 1014.3 1014.3 0.0
20/09:22am 11.2 4.0 6.1 71 2.4 W 33 52 18 28 1014.2 1014.2 0.0
20/09:00am 11.0 3.5 6.2 72 2.2 W 35 50 19 27 1013.5 1013.5 1.2
20/08:31am 10.7 1.6 6.1 73 2.1 W 43 61 23 33 1012.4 1012.4 1.2
20/08:30am 10.6 1.3 6.0 73 2.1 W 44 61 24 33 1012.4 1012.4 1.2

Other formats

Comma delimited format used in spreadsheet applications
http://www.bom.gov.au/fwo/IDT60801/IDT60801.94983.axf

JavaScript Object Notation format (JSON) in row-major order
http://www.bom.gov.au/fwo/IDT60801/IDT60801.94983.json

Data quality

Most of these data are generated automatically and are frequently updated. Quality checks on data are not normally performed. It is possible for incorrect values to appear. Refer to information at About Latest Weather Observations and please check the disclaimer before using these data.